Thursday, January 18, 2018, 4:04 PM GMT
Back to Local

CWEW, L'Assomption

Location: , , Canada Lat: 45.817
Local Time: 4:04 PM GMT (16:04 GMT) Lon: -73.433
Time Zone: GMT Elev: 68 ft

Show me the last for .
Show Decoded

2018-01-18 15:00 METAR CWEW 181500Z AUTO 24009G15KT M04/M08 RMK AO1 SOG 11 1002 SLP140 T10421080
                 =
2018-01-18 14:00 METAR CWEW 181400Z AUTO 23009KT M05/M08 RMK AO1 SOG 11 3002 SLP140 T10461078 =
2018-01-18 13:00 METAR CWEW 181300Z AUTO 23008KT M05/M08 RMK AO1 SOG 11 5000 SLP139 T10501078 =
2018-01-18 12:00 METAR CWEW 181200Z AUTO 23008KT M05/M08 RMK AO1 SOG 11 6004 SLP138 T10521078 =
2018-01-18 11:00 METAR CWEW 181100Z AUTO 22012KT M05/M08 RMK AO1 SOG 11 6013 SLP138 T10531080 =
2018-01-18 10:00 METAR CWEW 181000Z AUTO 22011KT M05/M08 RMK AO1 SOG 11 6019 SLP139 T10541084 =
2018-01-18 09:00 METAR CWEW 180900Z AUTO 21009KT M06/M08 RMK AO1 SOG 11 8018 SLP142 T10561082 =
2018-01-18 08:00 METAR CWEW 180800Z AUTO 21008KT M06/M08 RMK AO1 SOG 11 8014 SLP151 T10581082 =
2018-01-18 07:00 METAR CWEW 180700Z AUTO 23006KT M06/M08 RMK AO1 SOG 11 6012 SLP158 T10611084 =
2018-01-18 06:00 METAR CWEW 180600Z AUTO 22009KT M06/M09 RMK AO1 SOG 11 6016 SLP160 T10591086 =
2018-01-18 05:00 METAR CWEW 180500Z AUTO 22009KT M06/M09 RMK AO1 SOG 11 6019 PK WND 22017/0418
                 SLP165 T10621094 =
2018-01-18 04:00 METAR CWEW 180400Z AUTO 22011G16KT M06/M10 RMK AO1 SOG 11 6023 PK WND 21019/0305
                 SLP170 T10641099 =
2018-01-18 03:00 METAR CWEW 180300Z AUTO 22012G17KT M06/M10 RMK AO1 SOG 11 6027 PK WND 20018/0207
                 SLP176 T10641098 =
2018-01-18 02:00 METAR CWEW 180200Z AUTO 21010G17KT M06/M10 RMK AO1 SOG 12 8027 PK WND 22017/0147
                 SLP184 T10631102 =
2018-01-18 01:00 METAR CWEW 180100Z AUTO 21010G16KT M06/M10 RMK AO1 SOG 13 8027 PK WND 22018/0049
                 SLP193 T10621097 =
2018-01-18 00:00 METAR CWEW 180000Z AUTO 21008KT M06/M10 RMK AO1 SOG 13 6028 SLP203 T10641096 =
2018-01-17 23:00 METAR CWEW 172300Z AUTO 19006KT M07/M10 RMK AO1 SOG 13 8021 SLP212 T10711098 =
2018-01-17 22:00 METAR CWEW 172200Z AUTO 22005KT M08/M11 RMK AO1 SOG 13 8022 SLP221 T10791107 =
2018-01-17 21:00 METAR CWEW 172100Z AUTO 21005KT M07/M11 RMK AO1 SOG 13 6023 SLP232 T10741107 =
2018-01-17 20:00 METAR CWEW 172000Z AUTO 21004KT M07/M11 RMK AO1 SOG 12 8031 SLP233 T10691112 =
2018-01-17 19:00 METAR CWEW 171900Z AUTO 21004KT M07/M11 RMK AO1 SOG 12 6038 SLP243 T10661110 =
2018-01-17 18:00 METAR CWEW 171800Z AUTO 20005KT M07/M11 RMK AO1 SOG 12 8034 SLP255 T10701112
                 50006 =
2018-01-17 17:00 METAR CWEW 171700Z AUTO 19003KT M08/M12 RMK AO1 2PAST HR SOG 12 8029 SLP264
                 P0001 T10751115 50006 =

Support USWX by starting your Amazon purchase here.